createdAt,value
2022-12-11T00:01:12.124Z,6.95
2022-12-11T00:03:40.911Z,8.98
2022-12-11T00:06:11.566Z,8.57
2022-12-11T00:08:42.294Z,7.47
2022-12-11T00:11:13.850Z,8.52
2022-12-11T00:13:41.908Z,7.07
2022-12-11T00:16:10.602Z,7.80
2022-12-11T00:18:38.653Z,10.10
2022-12-11T00:21:08.505Z,6.65
2022-12-11T00:23:37.354Z,8.25
2022-12-11T00:26:12.911Z,10.30
2022-12-11T00:28:41.479Z,7.35
2022-12-11T00:31:14.353Z,10.77
2022-12-11T00:33:43.994Z,9.20
2022-12-11T00:36:20.390Z,14.87
2022-12-11T00:38:49.448Z,9.55
2022-12-11T00:41:18.061Z,9.82
2022-12-11T00:43:46.203Z,9.02
2022-12-11T00:46:14.562Z,9.45
2022-12-11T00:48:42.383Z,10.27
2022-12-11T00:51:10.977Z,12.43
2022-12-11T00:53:40.150Z,9.55
2022-12-11T00:56:16.788Z,9.80
2022-12-11T00:58:46.021Z,12.68
2022-12-11T01:01:25.496Z,11.12
2022-12-11T01:03:54.299Z,7.43
2022-12-11T01:06:28.309Z,12.88
2022-12-11T01:09:15.663Z,11.40
2022-12-11T01:11:46.225Z,11.15
2022-12-11T01:14:14.666Z,12.85
2022-12-11T01:16:42.547Z,10.63
2022-12-11T01:19:10.377Z,12.30
2022-12-11T01:21:41.486Z,15.30
2022-12-11T01:24:09.353Z,11.85
2022-12-11T01:26:37.203Z,12.15
2022-12-11T01:29:05.257Z,15.43
2022-12-11T01:31:33.983Z,10.55
2022-12-11T01:34:01.839Z,15.02
2022-12-11T01:36:30.036Z,18.42
2022-12-11T01:39:00.843Z,12.55
2022-12-11T01:41:28.774Z,14.65
2022-12-11T01:44:08.854Z,13.65
2022-12-11T01:46:37.262Z,14.52
2022-12-11T01:49:09.529Z,14.10
2022-12-11T01:51:59.490Z,11.50
2022-12-11T01:54:30.573Z,12.02
2022-12-11T01:57:09.477Z,16.02
2022-12-11T01:59:41.522Z,13.60
2022-12-11T02:02:21.941Z,16.42
2022-12-11T02:04:50.400Z,13.68
2022-12-11T02:07:18.302Z,16.45
2022-12-11T02:09:48.066Z,15.02
2022-12-11T02:12:59.761Z,15.25
2022-12-11T02:15:50.026Z,17.77
2022-12-11T02:18:37.083Z,14.70
2022-12-11T02:21:21.273Z,14.18
2022-12-11T02:24:17.692Z,15.45
2022-12-11T02:26:51.817Z,14.95
2022-12-11T02:29:35.344Z,16.25
2022-12-11T02:35:09.917Z,17.77
2022-12-11T02:37:42.251Z,15.95
2022-12-11T02:40:13.443Z,16.02
2022-12-11T02:42:44.235Z,19.05
2022-12-11T02:45:14.285Z,9.60
2022-12-11T02:47:47.727Z,15.07
2022-12-11T02:50:19.926Z,15.43
2022-12-11T02:52:51.114Z,15.07
2022-12-11T02:55:20.224Z,17.70
2022-12-11T02:57:51.437Z,18.12
2022-12-11T03:00:20.190Z,19.58
2022-12-11T03:02:48.285Z,15.98
2022-12-11T03:05:16.703Z,13.32
2022-12-11T03:07:48.144Z,14.38
2022-12-11T03:10:19.486Z,15.43
2022-12-11T03:12:53.805Z,18.67
2022-12-11T03:15:30.507Z,19.27
2022-12-11T03:18:20.459Z,15.32
2022-12-11T03:21:09.649Z,15.85
2022-12-11T03:24:11.683Z,20.25
2022-12-11T03:26:55.968Z,16.60
2022-12-11T03:29:30.715Z,15.30
2022-12-11T03:32:13.728Z,17.83
2022-12-11T03:34:59.977Z,13.77
2022-12-11T03:37:31.785Z,13.60
2022-12-11T03:40:05.557Z,16.77
2022-12-11T03:42:34.811Z,18.20
2022-12-11T03:45:05.358Z,18.50
2022-12-11T03:47:33.918Z,20.05
2022-12-11T03:50:04.527Z,16.45
2022-12-11T03:52:33.833Z,18.55
2022-12-11T03:55:04.721Z,16.45
2022-12-11T03:57:36.707Z,16.48
2022-12-11T04:00:17.127Z,18.40
2022-12-11T04:02:45.769Z,14.98
2022-12-11T04:05:14.014Z,16.02
2022-12-11T04:07:42.052Z,16.73
2022-12-11T04:10:10.480Z,18.42
2022-12-11T04:12:38.387Z,16.37
2022-12-11T04:15:06.669Z,20.23
2022-12-11T04:17:55.907Z,15.57
2022-12-11T04:20:42.399Z,18.05
2022-12-11T04:23:34.354Z,17.15
2022-12-11T04:26:07.818Z,17.27
2022-12-11T04:28:36.646Z,17.62
2022-12-11T04:31:04.919Z,21.90
2022-12-11T04:33:33.014Z,17.87
2022-12-11T04:36:01.680Z,16.62
2022-12-11T04:38:29.377Z,16.40
2022-12-11T04:41:09.233Z,17.55
2022-12-11T04:43:37.834Z,17.60
2022-12-11T04:46:06.896Z,17.02
2022-12-11T04:48:35.770Z,22.48
2022-12-11T04:51:04.777Z,19.05
2022-12-11T04:53:32.923Z,21.05
2022-12-11T04:56:12.334Z,16.27
2022-12-11T04:58:42.106Z,20.15
2022-12-11T05:01:22.719Z,19.70
2022-12-11T05:03:51.077Z,15.40
2022-12-11T05:06:18.911Z,21.77
2022-12-11T05:08:46.724Z,19.60
2022-12-11T05:11:16.631Z,14.77
2022-12-11T05:13:45.670Z,17.37
2022-12-11T05:16:16.459Z,19.40
2022-12-11T05:18:44.691Z,15.40
2022-12-11T05:21:15.863Z,16.87
2022-12-11T05:23:44.146Z,23.55
2022-12-11T05:26:19.217Z,18.58
2022-12-11T05:28:51.345Z,18.73
2022-12-11T05:31:22.362Z,16.23
2022-12-11T05:33:51.305Z,19.00
2022-12-11T05:36:26.474Z,15.65
2022-12-11T05:38:55.690Z,17.67
2022-12-11T05:41:25.830Z,17.95
2022-12-11T05:43:54.300Z,15.18
2022-12-11T05:46:31.232Z,18.17
2022-12-11T05:49:01.980Z,15.57
2022-12-11T05:51:30.907Z,19.52
2022-12-11T05:53:59.867Z,23.23
2022-12-11T05:56:35.041Z,18.75
2022-12-11T05:59:05.168Z,21.60
2022-12-11T06:01:42.764Z,23.08
2022-12-11T06:04:12.543Z,22.10
2022-12-11T06:06:41.066Z,20.95
2022-12-11T06:09:08.837Z,23.77
2022-12-11T06:11:37.251Z,29.15
2022-12-11T06:14:05.534Z,21.30
2022-12-11T06:16:33.562Z,20.83
2022-12-11T06:19:02.173Z,22.58
2022-12-11T06:21:32.607Z,25.20
2022-12-11T06:24:05.928Z,26.20
2022-12-11T06:26:34.061Z,26.02
2022-12-11T06:29:01.834Z,20.83
2022-12-11T06:31:29.719Z,26.65
2022-12-11T06:33:57.909Z,21.10
2022-12-11T06:36:26.054Z,22.08
2022-12-11T06:38:56.812Z,20.65
2022-12-11T06:41:25.468Z,23.45
2022-12-11T06:43:53.292Z,25.85
2022-12-11T06:46:21.915Z,26.27
2022-12-11T06:48:51.623Z,33.17
2022-12-11T06:51:22.062Z,34.22
2022-12-11T06:53:56.367Z,27.77
2022-12-11T06:56:25.113Z,28.45
2022-12-11T06:58:53.580Z,24.42
2022-12-11T07:01:27.771Z,25.77
2022-12-11T07:03:58.469Z,25.33
2022-12-11T07:06:28.798Z,25.15
2022-12-11T07:08:57.557Z,24.20
2022-12-11T07:11:25.321Z,23.48
2022-12-11T07:13:53.080Z,24.37
2022-12-11T07:16:21.837Z,20.83
2022-12-11T07:18:51.320Z,21.17
2022-12-11T07:21:20.828Z,16.48
2022-12-11T07:23:49.996Z,18.17
2022-12-11T07:26:20.996Z,15.93
2022-12-11T07:28:49.621Z,15.80
2022-12-11T07:31:23.312Z,14.85
2022-12-11T07:33:58.184Z,16.30
2022-12-11T07:36:26.903Z,13.05
2022-12-11T07:38:55.568Z,14.48
2022-12-11T07:41:23.803Z,19.33
2022-12-11T07:43:53.961Z,16.30
2022-12-11T07:46:28.616Z,11.63
2022-12-11T07:48:56.480Z,16.65
2022-12-11T07:51:30.771Z,13.15
2022-12-11T07:54:05.202Z,11.90
2022-12-11T07:56:35.924Z,15.88
2022-12-11T07:59:05.989Z,15.40
2022-12-11T08:01:36.800Z,14.90
2022-12-11T08:04:10.408Z,11.65
2022-12-11T08:06:40.521Z,13.40
2022-12-11T08:09:14.684Z,9.98
2022-12-11T08:11:49.560Z,11.15
2022-12-11T08:14:18.296Z,10.02
2022-12-11T08:16:46.216Z,8.45
2022-12-11T08:19:14.643Z,11.60
2022-12-11T08:21:43.032Z,13.00
2022-12-11T08:24:11.000Z,11.20
2022-12-11T08:26:39.841Z,9.45
2022-12-11T08:29:09.635Z,11.20
2022-12-11T08:31:39.676Z,10.43
2022-12-11T08:34:07.603Z,8.43
2022-12-11T08:36:35.688Z,9.98
2022-12-11T08:39:03.584Z,10.02
2022-12-11T08:41:31.938Z,6.97
2022-12-11T08:44:01.994Z,7.72
2022-12-11T08:46:32.776Z,9.07
2022-12-11T08:49:01.082Z,8.40
2022-12-11T08:51:30.190Z,8.93
2022-12-11T08:54:02.393Z,7.87
2022-12-11T08:56:30.905Z,6.35
2022-12-11T08:59:02.277Z,9.20
2022-12-11T09:01:30.685Z,7.07
2022-12-11T09:03:58.964Z,6.07
2022-12-11T09:06:28.549Z,6.40
2022-12-11T09:08:59.248Z,7.18
2022-12-11T09:11:30.684Z,9.40
2022-12-11T09:14:05.172Z,6.60
2022-12-11T09:16:40.694Z,8.70
2022-12-11T09:19:14.488Z,8.77
2022-12-11T09:21:43.546Z,6.60
2022-12-11T09:24:13.745Z,8.18
2022-12-11T09:26:42.455Z,6.20
2022-12-11T09:29:12.505Z,6.45
2022-12-11T09:31:41.067Z,6.75
2022-12-11T09:34:12.041Z,9.70
2022-12-11T09:36:41.658Z,7.45
2022-12-11T09:39:12.576Z,6.62
2022-12-11T09:42:03.803Z,7.70
2022-12-11T09:44:48.974Z,6.90
2022-12-11T09:47:35.120Z,9.57
2022-12-11T09:50:12.061Z,8.90
2022-12-11T09:53:14.455Z,8.13
2022-12-11T09:56:07.696Z,8.88
2022-12-11T09:58:52.327Z,12.00
2022-12-11T10:01:41.331Z,8.35
2022-12-11T10:04:28.082Z,8.35
2022-12-11T10:07:17.146Z,9.52
2022-12-11T10:10:06.399Z,8.93
2022-12-11T10:13:02.769Z,10.00
2022-12-11T10:15:30.946Z,9.00
2022-12-11T10:18:04.887Z,8.00
2022-12-11T10:20:39.556Z,9.63
2022-12-11T10:23:10.090Z,9.98
2022-12-11T10:26:06.367Z,8.30
2022-12-11T10:28:35.495Z,7.43
2022-12-11T10:31:37.814Z,10.20
2022-12-11T10:34:15.280Z,11.80
2022-12-11T10:36:44.065Z,6.15
2022-12-11T10:39:15.839Z,10.00
2022-12-11T10:41:47.028Z,10.05
2022-12-11T10:44:26.407Z,7.55
2022-12-11T10:47:15.973Z,9.70
2022-12-11T10:49:52.625Z,9.85
2022-12-11T10:52:24.334Z,10.90
2022-12-11T10:55:00.007Z,8.27
2022-12-11T10:57:35.109Z,7.55
2022-12-11T11:00:23.055Z,9.25
2022-12-11T11:02:51.146Z,9.35
2022-12-11T11:05:36.516Z,8.88
2022-12-11T11:08:16.126Z,8.73
2022-12-11T11:11:37.094Z,9.75
2022-12-11T11:14:08.291Z,6.85
2022-12-11T11:16:39.185Z,8.18
2022-12-11T11:19:08.017Z,7.95
2022-12-11T11:21:36.260Z,6.00
2022-12-11T11:24:04.381Z,6.97
2022-12-11T11:27:04.730Z,6.57
2022-12-11T11:29:34.920Z,8.20
2022-12-11T11:32:22.969Z,9.50
2022-12-11T11:34:50.879Z,6.25
2022-12-11T11:37:33.338Z,7.80
2022-12-11T11:40:12.258Z,9.57
2022-12-11T11:42:56.877Z,13.15
2022-12-11T11:45:36.519Z,16.87
2022-12-11T11:48:20.621Z,11.18
2022-12-11T11:50:50.816Z,12.37
2022-12-11T11:53:26.479Z,9.30
2022-12-11T11:56:24.174Z,7.07
2022-12-11T11:59:14.684Z,6.78
2022-12-11T12:01:43.795Z,4.80
2022-12-11T12:04:12.755Z,6.70
2022-12-11T12:07:01.978Z,6.05
2022-12-11T12:09:42.308Z,5.43
2022-12-11T12:12:33.812Z,4.78
2022-12-11T12:15:11.231Z,6.45
2022-12-11T12:18:14.287Z,4.15
2022-12-11T12:20:45.264Z,6.93
2022-12-11T12:23:37.397Z,3.10
2022-12-11T12:26:24.120Z,5.32
2022-12-11T12:29:10.142Z,7.15
2022-12-11T12:32:05.580Z,13.80
2022-12-11T12:34:51.719Z,8.75
2022-12-11T12:37:53.419Z,6.03
2022-12-11T12:40:41.127Z,4.47
2022-12-11T12:43:53.685Z,5.03
2022-12-11T12:47:02.146Z,4.53
2022-12-11T12:49:43.298Z,4.75
2022-12-11T12:52:26.702Z,3.90
2022-12-11T12:55:16.545Z,6.28
2022-12-11T12:57:51.542Z,4.03
2022-12-11T13:00:41.558Z,4.43
2022-12-11T13:03:21.116Z,2.70
2022-12-11T13:06:05.201Z,2.60
2022-12-11T13:08:52.066Z,4.80
2022-12-11T13:11:21.943Z,3.85
2022-12-11T13:14:04.784Z,3.87
2022-12-11T13:19:42.418Z,3.60
2022-12-11T13:22:13.643Z,3.35
2022-12-11T13:24:53.190Z,3.58
2022-12-11T13:27:27.904Z,4.25
2022-12-11T13:30:30.379Z,5.07
2022-12-11T13:33:06.549Z,3.75
2022-12-11T13:35:35.680Z,4.70
2022-12-11T13:38:23.041Z,3.28
2022-12-11T13:40:54.937Z,4.75
2022-12-11T13:43:27.460Z,5.30
2022-12-11T13:45:59.878Z,7.15
2022-12-11T13:48:37.383Z,8.07
2022-12-11T13:51:06.512Z,4.62
2022-12-11T13:53:34.703Z,5.35
2022-12-11T13:56:08.136Z,4.47
2022-12-11T13:58:39.510Z,2.85
2022-12-11T14:01:07.981Z,4.18
2022-12-11T14:03:36.708Z,3.78
2022-12-11T14:06:04.943Z,2.62
2022-12-11T14:08:37.547Z,4.90
2022-12-11T14:13:40.609Z,3.55
2022-12-11T14:16:08.915Z,3.72
2022-12-11T14:18:37.592Z,3.40
2022-12-11T14:21:06.955Z,3.97
2022-12-11T14:23:37.828Z,3.40
2022-12-11T14:26:19.243Z,3.83
2022-12-11T14:28:47.596Z,3.85
2022-12-11T14:31:23.086Z,2.58
2022-12-11T14:34:02.105Z,3.05
2022-12-11T14:36:32.175Z,4.10
2022-12-11T14:39:12.418Z,2.92
2022-12-11T14:41:45.861Z,2.70
2022-12-11T14:44:17.769Z,3.30
2022-12-11T14:47:07.333Z,2.87
2022-12-11T14:49:41.200Z,2.92
2022-12-11T14:52:31.654Z,3.80
2022-12-11T14:55:25.377Z,2.45
2022-12-11T15:00:25.740Z,3.58
2022-12-11T15:03:20.737Z,2.65
2022-12-11T15:05:56.262Z,2.65
2022-12-11T15:08:26.963Z,3.47
2022-12-11T15:11:04.926Z,3.65
2022-12-11T15:13:35.128Z,4.12
2022-12-11T15:16:06.451Z,3.70
2022-12-11T15:18:36.482Z,3.37
2022-12-11T15:21:07.604Z,2.62
2022-12-11T15:23:55.577Z,4.35
2022-12-11T15:26:39.374Z,2.67
2022-12-11T15:29:26.542Z,2.75
2022-12-11T15:32:09.879Z,3.50
2022-12-11T15:34:46.557Z,3.33
2022-12-11T15:37:27.105Z,3.47
2022-12-11T15:39:56.772Z,3.05
2022-12-11T15:42:43.279Z,3.60
2022-12-11T15:45:19.476Z,4.07
2022-12-11T15:47:49.595Z,3.40
2022-12-11T15:50:21.158Z,2.92
2022-12-11T15:52:50.538Z,2.97
2022-12-11T15:55:19.000Z,3.62
2022-12-11T15:58:02.294Z,2.62
2022-12-11T16:00:30.857Z,4.82
2022-12-11T16:02:59.230Z,3.83
2022-12-11T16:05:27.433Z,3.65
2022-12-11T16:07:59.887Z,3.20
2022-12-11T16:10:28.373Z,4.40
2022-12-11T16:12:59.879Z,3.45
2022-12-11T16:15:28.838Z,3.33
2022-12-11T16:18:17.879Z,5.35
2022-12-11T16:20:47.161Z,3.10
2022-12-11T16:23:17.473Z,3.17
2022-12-11T16:28:32.226Z,2.85
2022-12-11T16:30:59.984Z,2.60
2022-12-11T16:33:27.868Z,3.05
2022-12-11T16:35:56.071Z,2.90
2022-12-11T16:38:23.793Z,4.87
2022-12-11T16:41:00.244Z,3.53
2022-12-11T16:43:28.345Z,4.20
2022-12-11T16:45:56.331Z,4.65
2022-12-11T16:48:24.378Z,2.65
2022-12-11T16:50:58.959Z,3.75
2022-12-11T16:53:26.825Z,2.60
2022-12-11T16:55:55.346Z,4.32
2022-12-11T16:58:23.106Z,3.47
2022-12-11T17:00:51.036Z,3.65
2022-12-11T17:03:22.021Z,3.53
2022-12-11T17:05:49.718Z,3.72
2022-12-11T17:08:17.511Z,2.85
2022-12-11T17:10:45.733Z,4.47
2022-12-11T17:13:13.757Z,3.55
2022-12-11T17:15:45.740Z,2.72
2022-12-11T17:18:14.438Z,3.00
2022-12-11T17:20:43.302Z,2.97
2022-12-11T17:23:12.220Z,5.47
2022-12-11T17:25:45.628Z,3.60
2022-12-11T17:28:13.949Z,4.15
2022-12-11T17:30:44.946Z,5.15
2022-12-11T17:33:12.884Z,4.05
2022-12-11T17:35:40.621Z,5.65
2022-12-11T17:38:08.761Z,4.95
2022-12-11T17:40:41.496Z,4.50
2022-12-11T17:43:11.428Z,2.95
2022-12-11T17:45:52.599Z,4.28
2022-12-11T17:48:24.350Z,5.62
2022-12-11T17:50:53.495Z,4.12
2022-12-11T17:53:23.053Z,5.28
2022-12-11T17:55:52.159Z,4.70
2022-12-11T17:58:22.864Z,4.47
2022-12-11T18:00:53.451Z,5.40
2022-12-11T18:03:22.894Z,4.53
2022-12-11T18:05:53.494Z,4.05
2022-12-11T18:08:26.407Z,4.90
2022-12-11T18:10:54.839Z,3.72
2022-12-11T18:13:23.803Z,4.37
2022-12-11T18:16:07.285Z,4.95
2022-12-11T18:18:35.691Z,3.08
2022-12-11T18:21:03.766Z,2.95
2022-12-11T18:26:18.651Z,5.68
2022-12-11T18:28:47.321Z,3.10
2022-12-11T18:31:16.007Z,5.05
2022-12-11T18:36:31.270Z,3.50
2022-12-11T18:38:59.457Z,3.80
2022-12-11T18:41:27.219Z,5.75
2022-12-11T18:50:30.729Z,5.82
2022-12-11T18:52:59.006Z,5.18
2022-12-11T18:55:27.099Z,7.60
2022-12-11T18:57:55.023Z,4.40
2022-12-11T19:00:26.165Z,6.35
2022-12-11T19:02:53.866Z,5.03
2022-12-11T19:05:21.657Z,6.95
2022-12-11T19:07:50.116Z,7.78
2022-12-11T19:10:18.139Z,10.13
2022-12-11T19:12:46.220Z,6.75
2022-12-11T19:15:17.371Z,6.95
2022-12-11T19:17:47.589Z,5.93
2022-12-11T19:20:47.566Z,4.50
2022-12-11T19:23:04.322Z,7.32
2022-12-11T19:25:33.110Z,6.20
2022-12-11T19:28:01.389Z,6.30
2022-12-11T19:30:29.276Z,6.97
2022-12-11T19:32:58.645Z,6.70
2022-12-11T19:35:26.510Z,7.18
2022-12-11T19:37:55.783Z,8.80
2022-12-11T19:40:27.168Z,9.52
2022-12-11T19:42:54.983Z,7.90
2022-12-11T19:45:23.147Z,9.90
2022-12-11T19:47:50.966Z,9.88
2022-12-11T19:50:21.802Z,11.15
2022-12-11T19:52:50.023Z,8.45
2022-12-11T19:55:19.923Z,11.05
2022-12-11T19:57:48.023Z,12.07
2022-12-11T20:00:16.604Z,10.13
2022-12-11T20:02:44.858Z,13.07
2022-12-11T20:05:13.456Z,13.32
2022-12-11T20:07:41.530Z,17.62
2022-12-11T20:10:10.312Z,16.25
2022-12-11T20:12:38.185Z,16.08
2022-12-11T20:15:06.941Z,17.02
2022-12-11T20:17:37.025Z,16.83
2022-12-11T20:20:05.206Z,17.40
2022-12-11T20:22:32.881Z,16.37
2022-12-11T20:25:00.956Z,19.95
2022-12-11T20:27:28.883Z,14.27
2022-12-11T20:29:57.785Z,17.77
2022-12-11T20:32:26.089Z,16.60
2022-12-11T20:34:58.031Z,14.98
2022-12-11T20:37:27.202Z,15.23
2022-12-11T20:39:55.262Z,11.52
2022-12-11T20:42:24.294Z,13.57
2022-12-11T20:44:52.490Z,15.98
2022-12-11T20:47:23.467Z,19.23
2022-12-11T20:49:52.543Z,15.70
2022-12-11T20:52:21.537Z,19.70
2022-12-11T20:54:49.565Z,19.50
2022-12-11T20:57:17.406Z,16.27
2022-12-11T20:59:45.794Z,20.30
2022-12-11T21:02:13.745Z,16.12
2022-12-11T21:04:41.971Z,18.23
2022-12-11T21:07:11.489Z,15.40
2022-12-11T21:09:39.622Z,17.45
2022-12-11T21:12:08.067Z,17.00
2022-12-11T21:14:36.477Z,16.55
2022-12-11T21:17:05.018Z,18.90
2022-12-11T21:19:36.431Z,16.80
2022-12-11T21:22:07.815Z,16.45
2022-12-11T21:24:35.702Z,17.12
2022-12-11T21:27:03.607Z,18.40
2022-12-11T21:29:31.939Z,17.20
2022-12-11T21:31:59.945Z,21.52
2022-12-11T21:34:28.076Z,15.25
2022-12-11T21:36:57.419Z,18.17
2022-12-11T21:39:28.544Z,15.48
2022-12-11T21:41:58.414Z,17.92
2022-12-11T21:47:15.992Z,16.35
2022-12-11T21:49:43.751Z,16.27
2022-12-11T21:52:12.167Z,13.18
2022-12-11T21:54:41.204Z,16.90
2022-12-11T21:57:09.047Z,14.50
2022-12-11T21:59:36.788Z,18.77
2022-12-11T22:02:04.967Z,14.70
2022-12-11T22:04:33.304Z,15.57
2022-12-11T22:07:01.123Z,19.52
2022-12-11T22:09:28.987Z,18.62
2022-12-11T22:11:58.767Z,14.80
2022-12-11T22:14:27.111Z,19.15
2022-12-11T22:16:55.074Z,17.10
2022-12-11T22:19:25.610Z,15.63
2022-12-11T22:21:57.182Z,8.63
2022-12-11T22:24:25.326Z,7.10
2022-12-11T22:26:54.719Z,11.65
2022-12-11T22:29:22.580Z,16.02
2022-12-11T22:31:50.810Z,14.13
2022-12-11T22:34:18.590Z,13.62
2022-12-11T22:36:46.283Z,15.05
2022-12-11T22:39:14.316Z,14.05
2022-12-11T22:41:45.152Z,10.90
2022-12-11T22:44:15.529Z,16.27
2022-12-11T22:46:49.705Z,16.23
2022-12-11T22:49:19.490Z,18.48
2022-12-11T22:51:48.089Z,18.40
2022-12-11T22:54:16.105Z,13.65
2022-12-11T22:56:43.856Z,24.12
2022-12-11T22:59:11.980Z,16.65
2022-12-11T23:01:40.795Z,19.20
2022-12-11T23:04:08.611Z,15.43
2022-12-11T23:06:36.894Z,18.60
2022-12-11T23:09:04.863Z,16.00
2022-12-11T23:11:36.584Z,8.35
2022-12-11T23:14:07.949Z,13.68
2022-12-11T23:16:35.691Z,10.82
2022-12-11T23:19:04.123Z,18.85
2022-12-11T23:21:33.114Z,9.93
2022-12-11T23:24:01.686Z,15.90
2022-12-11T23:26:30.147Z,9.82
2022-12-11T23:28:59.648Z,17.77
2022-12-11T23:31:28.334Z,8.38
2022-12-11T23:33:56.530Z,9.15
2022-12-11T23:36:26.186Z,22.70
2022-12-11T23:38:55.171Z,9.95
2022-12-11T23:41:24.200Z,12.68
2022-12-11T23:43:52.629Z,15.03
2022-12-11T23:46:23.730Z,10.15
2022-12-11T23:48:53.514Z,16.73
2022-12-11T23:51:22.969Z,6.60
2022-12-11T23:53:51.619Z,13.60
2022-12-11T23:56:23.360Z,18.48
2022-12-11T23:58:52.683Z,19.95
